Time;durP1;ratioP1;P1;durP2;ratioP2;P2;SDS_P1;SDS_P2;PMS_P1;PMS_P2;Temp;Humidity;BMP_temperature;BMP_pressure;BME280_temperature;BME280_humidity;BME280_pressure;Samples;Min_cycle;Max_cycle;Signal;HPM_P1;HPM_P2
2023/03/05 00:01:36;;;;;;;5.30;1.25;;;3.90;99.90;;;;;;6303481;22;20015;-84
2023/03/05 00:04:04;;;;;;;11.38;2.90;;;4.00;99.90;;;;;;6249333;22;20020;-84
2023/03/05 00:06:31;;;;;;;5.32;1.85;;;4.00;99.90;;;;;;6274562;22;20086;-84
2023/03/05 00:08:57;;;;;;;8.65;1.90;;;3.90;99.90;;;;;;6302291;22;20058;-85
2023/03/05 00:11:24;;;;;;;10.55;2.60;;;4.00;99.90;;;;;;6302657;22;20016;-85
2023/03/05 00:13:51;;;;;;;10.43;2.10;;;4.00;99.90;;;;;;6304350;22;20027;-85
2023/03/05 00:16:17;;;;;;;6.97;1.40;;;3.90;99.90;;;;;;6276112;22;20205;-84
2023/03/05 00:18:43;;;;;;;5.95;1.70;;;4.00;99.90;;;;;;6275947;22;20429;-84
2023/03/05 00:21:21;;;;;;;6.53;1.70;;;3.90;99.90;;;;;;6304584;22;20329;-85
2023/03/05 00:23:49;;;;;;;7.03;1.70;;;4.00;99.90;;;;;;6304460;22;20455;-84
2023/03/05 00:26:19;;;;;;;6.97;2.03;;;4.00;99.90;;;;;;6303309;22;20012;-85
2023/03/05 00:28:49;;;;;;;7.80;1.63;;;3.90;99.90;;;;;;6276232;22;20011;-85
2023/03/05 00:31:16;;;;;;;9.07;2.88;;;3.90;99.90;;;;;;6303963;22;20061;-84
2023/03/05 00:33:42;;;;;;;7.65;1.33;;;3.90;99.90;;;;;;6277294;22;20007;-85
2023/03/05 00:36:09;;;;;;;8.35;1.60;;;4.00;99.90;;;;;;6303257;22;20584;-84
2023/03/05 00:38:34;;;;;;;6.32;1.50;;;3.90;99.90;;;;;;6304016;22;20058;-83
2023/03/05 00:41:00;;;;;;;6.90;1.63;;;3.90;99.90;;;;;;6277073;22;20015;-84
2023/03/05 00:43:27;;;;;;;5.07;1.60;;;3.90;99.90;;;;;;6277193;22;20015;-84
2023/03/05 00:45:53;;;;;;;7.53;1.90;;;3.90;99.90;;;;;;6306103;22;20011;-84
2023/03/05 00:48:18;;;;;;;3.15;1.00;;;3.90;99.90;;;;;;6277013;22;20026;-84
2023/03/05 00:50:44;;;;;;;6.70;1.52;;;4.00;99.90;;;;;;6304181;22;20015;-84
2023/03/05 00:53:10;;;;;;;6.90;1.15;;;4.00;99.90;;;;;;6279115;22;20010;-85
2023/03/05 00:55:36;;;;;;;5.47;1.42;;;3.90;99.90;;;;;;6276530;22;20082;-84
2023/03/05 00:58:02;;;;;;;7.53;1.48;;;3.90;99.90;;;;;;6304190;22;20015;-84
2023/03/05 01:00:27;;;;;;;6.32;1.77;;;3.80;99.90;;;;;;6303894;22;20030;-85
2023/03/05 01:02:53;;;;;;;6.93;1.95;;;3.80;99.90;;;;;;6305249;22;20008;-84
2023/03/05 01:05:19;;;;;;;3.42;1.27;;;3.80;99.90;;;;;;6301624;22;20018;-84
2023/03/05 01:07:44;;;;;;;8.30;2.08;;;3.80;99.90;;;;;;6307125;22;20011;-85
2023/03/05 01:10:11;;;;;;;6.53;1.38;;;3.80;99.90;;;;;;6278780;22;20007;-84
2023/03/05 01:12:37;;;;;;;6.88;1.80;;;3.80;99.90;;;;;;6277310;22;20088;-84
2023/03/05 01:15:04;;;;;;;3.92;1.15;;;3.80;99.90;;;;;;6305463;22;20019;-84
2023/03/05 01:17:30;;;;;;;8.38;1.63;;;3.70;99.90;;;;;;6304770;22;20133;-85
2023/03/05 01:19:55;;;;;;;8.20;2.05;;;3.70;99.90;;;;;;6276214;22;20043;-84
2023/03/05 01:22:21;;;;;;;6.85;1.55;;;3.70;99.90;;;;;;6302979;22;20003;-84
2023/03/05 01:24:47;;;;;;;4.95;1.50;;;3.70;99.90;;;;;;6277524;22;20011;-84
2023/03/05 01:27:12;;;;;;;5.15;1.50;;;3.60;99.90;;;;;;6304726;22;20008;-84
2023/03/05 01:29:38;;;;;;;7.25;1.45;;;3.60;99.90;;;;;;6276229;22;20398;-84
2023/03/05 01:32:04;;;;;;;8.82;2.47;;;3.60;99.90;;;;;;6276995;22;20011;-84
2023/03/05 01:34:29;;;;;;;8.45;2.13;;;3.60;99.90;;;;;;6301169;22;20019;-83
2023/03/05 01:36:55;;;;;;;5.35;1.27;;;3.70;99.90;;;;;;6303924;22;20011;-84
2023/03/05 01:39:21;;;;;;;6.40;1.90;;;3.70;99.90;;;;;;6275939;22;20020;-84
2023/03/05 01:41:46;;;;;;;6.13;1.40;;;3.60;99.90;;;;;;6305058;22;20011;-84
2023/03/05 01:44:27;;;;;;;5.18;1.40;;;3.60;99.90;;;;;;6303306;22;20021;-83
2023/03/05 01:46:53;;;;;;;7.88;1.60;;;3.60;99.90;;;;;;6305618;22;20440;-84
2023/03/05 01:49:24;;;;;;;3.92;1.42;;;3.60;99.90;;;;;;6248913;22;20026;-84
2023/03/05 01:52:24;;;;;;;4.68;1.33;;;3.60;99.90;;;;;;6276830;22;20090;-84
2023/03/05 01:54:54;;;;;;;6.32;1.65;;;3.50;99.90;;;;;;6296807;22;20011;-84
2023/03/05 01:57:25;;;;;;;8.43;1.83;;;3.40;99.90;;;;;;6276487;22;20007;-84
2023/03/05 01:59:55;;;;;;;7.03;1.70;;;3.40;99.90;;;;;;6304471;22;20014;-83
2023/03/05 02:02:21;;;;;;;7.32;1.52;;;3.40;99.90;;;;;;6302824;22;20011;-84
2023/03/05 02:04:54;;;;;;;5.40;1.35;;;3.40;99.90;;;;;;6303021;22;20029;-83
2023/03/05 02:07:20;;;;;;;7.18;1.70;;;3.30;99.90;;;;;;6303723;22;20011;-84
2023/03/05 02:09:46;;;;;;;3.75;1.40;;;3.30;99.90;;;;;;6276088;22;20509;-84
2023/03/05 02:12:13;;;;;;;7.85;1.85;;;3.30;99.90;;;;;;6303442;22;20012;-84
2023/03/05 02:14:43;;;;;;;7.22;1.90;;;3.30;99.90;;;;;;6276154;22;20077;-83
2023/03/05 02:17:10;;;;;;;6.13;1.90;;;3.30;99.90;;;;;;6304716;22;20078;-84
2023/03/05 02:19:50;;;;;;;9.32;2.00;;;3.40;99.90;;;;;;6302683;22;20408;-83
2023/03/05 02:22:18;;;;;;;3.08;1.02;;;3.40;99.90;;;;;;6303258;22;20022;-84
2023/03/05 02:24:44;;;;;;;4.93;1.58;;;3.40;99.90;;;;;;6303333;22;20374;-84
2023/03/05 02:27:12;;;;;;;7.68;1.92;;;3.50;99.90;;;;;;6304193;22;20038;-84
2023/03/05 02:29:41;;;;;;;5.72;1.38;;;3.50;99.90;;;;;;6276401;22;20015;-84
2023/03/05 02:32:08;;;;;;;6.85;1.90;;;3.50;99.90;;;;;;6275606;22;20007;-84
2023/03/05 02:34:34;;;;;;;6.80;1.50;;;3.40;99.90;;;;;;6275444;22;20018;-84
2023/03/05 02:37:01;;;;;;;7.85;2.10;;;3.40;99.90;;;;;;6303549;22;20086;-84
2023/03/05 02:39:27;;;;;;;8.10;2.05;;;3.30;99.90;;;;;;6249549;22;20043;-84
2023/03/05 02:41:52;;;;;;;8.60;1.60;;;3.30;99.90;;;;;;6276696;22;20074;-84
2023/03/05 02:44:18;;;;;;;5.75;1.67;;;3.30;99.90;;;;;;6250084;22;20015;-84
2023/03/05 02:46:44;;;;;;;5.50;1.50;;;3.30;99.90;;;;;;6304278;22;20034;-84
2023/03/05 02:49:09;;;;;;;9.05;1.92;;;3.30;99.90;;;;;;6277197;22;20015;-84
2023/03/05 02:51:35;;;;;;;7.85;1.95;;;3.30;99.90;;;;;;6303506;22;20011;-84
2023/03/05 02:54:01;;;;;;;7.70;1.63;;;3.30;99.90;;;;;;6304307;22;20004;-84
2023/03/05 02:56:26;;;;;;;6.88;1.55;;;3.30;99.90;;;;;;6251182;22;20383;-83
2023/03/05 02:58:52;;;;;;;6.07;1.92;;;3.20;99.90;;;;;;6280452;22;20019;-84
2023/03/05 03:01:17;;;;;;;5.60;1.88;;;3.20;99.90;;;;;;6306180;22;20011;-84
2023/03/05 03:03:43;;;;;;;7.00;1.75;;;3.20;99.90;;;;;;6277140;22;20019;-84
2023/03/05 03:06:08;;;;;;;6.18;1.55;;;3.20;99.90;;;;;;6280364;22;20018;-84
2023/03/05 03:08:34;;;;;;;5.75;1.70;;;3.10;99.90;;;;;;6310814;22;20015;-84
2023/03/05 03:11:11;;;;;;;5.70;1.30;;;3.10;99.90;;;;;;6313233;22;20048;-83
2023/03/05 03:13:37;;;;;;;5.20;1.70;;;3.10;99.90;;;;;;6320636;22;20030;-83
2023/03/05 03:16:09;;;;;;;5.85;1.60;;;3.10;99.90;;;;;;6321914;22;20106;-83
2023/03/05 03:18:35;;;;;;;5.65;1.50;;;3.10;99.90;;;;;;6315382;22;20019;-84
2023/03/05 03:21:01;;;;;;;4.80;1.65;;;3.10;99.90;;;;;;6310235;22;20011;-84
2023/03/05 03:23:27;;;;;;;8.60;1.58;;;3.20;99.90;;;;;;6280037;22;20018;-84
2023/03/05 03:25:53;;;;;;;6.95;1.98;;;3.20;99.90;;;;;;6279331;22;20011;-84
2023/03/05 03:28:19;;;;;;;9.48;1.83;;;3.20;99.90;;;;;;6279137;22;20021;-83
2023/03/05 03:30:44;;;;;;;6.72;1.80;;;3.20;99.90;;;;;;6305007;22;20015;-84
2023/03/05 03:33:10;;;;;;;6.88;1.55;;;3.20;99.90;;;;;;6277320;22;20013;-84
2023/03/05 03:35:36;;;;;;;6.10;1.73;;;3.20;99.90;;;;;;6251190;22;20053;-84
2023/03/05 03:38:02;;;;;;;5.80;1.80;;;3.30;99.90;;;;;;6304093;22;20015;-84
2023/03/05 03:40:27;;;;;;;7.32;1.40;;;3.30;99.90;;;;;;6276445;22;20019;-84
2023/03/05 03:42:53;;;;;;;6.97;1.88;;;3.40;99.90;;;;;;6276675;22;20026;-84
2023/03/05 03:45:22;;;;;;;6.85;1.77;;;3.30;99.90;;;;;;6301934;22;20086;-83
2023/03/05 03:47:50;;;;;;;7.50;1.45;;;3.30;99.90;;;;;;6276322;22;20011;-84
2023/03/05 03:50:16;;;;;;;7.07;1.20;;;3.40;99.90;;;;;;6276529;22;20491;-84
2023/03/05 03:52:42;;;;;;;6.20;1.60;;;3.30;99.90;;;;;;6303507;22;20009;-84
2023/03/05 03:55:09;;;;;;;5.28;1.60;;;3.30;99.90;;;;;;6302824;22;20448;-84
2023/03/05 03:57:35;;;;;;;5.03;1.38;;;3.30;99.90;;;;;;6302965;22;20015;-84
2023/03/05 04:00:05;;;;;;;8.77;1.45;;;3.40;99.90;;;;;;6275198;22;20007;-84
2023/03/05 04:02:31;;;;;;;5.00;1.40;;;3.40;99.90;;;;;;6302532;22;20340;-84
2023/03/05 04:04:56;;;;;;;4.25;1.48;;;3.40;99.90;;;;;;6275774;22;20007;-84
2023/03/05 04:07:22;;;;;;;7.68;1.88;;;3.40;99.90;;;;;;6274440;22;20068;-84
2023/03/05 04:09:48;;;;;;;5.82;1.70;;;3.40;99.90;;;;;;6276155;22;20392;-84
2023/03/05 04:12:16;;;;;;;6.03;1.58;;;3.40;99.90;;;;;;6274582;22;20068;-84
2023/03/05 04:14:46;;;;;;;5.72;1.33;;;3.40;99.90;;;;;;6276370;22;20007;-84
2023/03/05 04:17:12;;;;;;;4.30;1.13;;;3.40;99.90;;;;;;6304342;22;20333;-84
2023/03/05 04:19:38;;;;;;;4.97;1.20;;;3.40;99.90;;;;;;6277591;22;20051;-84
2023/03/05 04:22:05;;;;;;;4.95;1.13;;;3.40;99.90;;;;;;6306013;22;20011;-83
2023/03/05 04:24:31;;;;;;;2.08;0.82;;;3.40;99.90;;;;;;6304376;22;20022;-84
2023/03/05 04:26:56;;;;;;;3.38;0.80;;;3.40;99.90;;;;;;6278842;22;20011;-84
2023/03/05 04:29:22;;;;;;;2.35;0.90;;;3.40;99.90;;;;;;6304502;22;20336;-83
2023/03/05 04:31:47;;;;;;;3.00;0.95;;;3.50;99.90;;;;;;6305095;22;20011;-84
2023/03/05 04:34:13;;;;;;;5.63;1.30;;;3.40;99.90;;;;;;6277762;22;20011;-84
2023/03/05 04:36:39;;;;;;;6.45;1.30;;;3.30;99.90;;;;;;6277498;22;20056;-84
2023/03/05 04:39:04;;;;;;;3.78;1.00;;;3.40;99.90;;;;;;6305441;22;20015;-84
2023/03/05 04:41:30;;;;;;;4.28;0.95;;;3.30;99.90;;;;;;6277109;22;20626;-84
2023/03/05 04:43:55;;;;;;;4.97;1.23;;;3.30;99.90;;;;;;6251805;22;20014;-84
2023/03/05 04:46:21;;;;;;;6.30;1.60;;;3.40;99.90;;;;;;6276178;22;20011;-84
2023/03/05 04:48:47;;;;;;;2.55;0.80;;;3.40;99.90;;;;;;6304612;22;20325;-84
2023/03/05 04:51:12;;;;;;;2.72;0.90;;;3.40;99.90;;;;;;6252207;22;20008;-84
2023/03/05 04:53:38;;;;;;;3.95;1.00;;;3.40;99.90;;;;;;6305792;22;20007;-84
2023/03/05 04:56:04;;;;;;;4.85;1.00;;;3.30;99.90;;;;;;6277145;22;20022;-84
2023/03/05 04:58:29;;;;;;;5.15;1.08;;;3.30;99.90;;;;;;6303446;22;20050;-84
2023/03/05 05:01:01;;;;;;;3.47;0.88;;;3.30;99.90;;;;;;6304580;22;20432;-84
2023/03/05 05:03:26;;;;;;;;;;;3.30;99.90;;;;;;6277358;22;20022;-82
2023/03/05 05:05:57;;;;;;;3.92;0.70;;;3.20;99.90;;;;;;6304296;22;19915;-85
2023/03/05 05:08:24;;;;;;;4.22;0.93;;;3.30;99.90;;;;;;6304090;22;20423;-84
2023/03/05 05:10:56;;;;;;;1.30;0.82;;;3.20;99.90;;;;;;6274982;22;20023;-84
2023/03/05 05:13:22;;;;;;;1.52;0.70;;;3.30;99.90;;;;;;6252549;22;20347;-84
2023/03/05 05:15:47;;;;;;;3.13;1.00;;;3.30;99.90;;;;;;6305940;22;20046;-83
2023/03/05 05:18:13;;;;;;;2.38;0.80;;;3.30;99.90;;;;;;6277772;22;20011;-84
2023/03/05 05:20:38;;;;;;;4.70;1.20;;;3.30;99.90;;;;;;6251122;22;20068;-84
2023/03/05 05:23:04;;;;;;;6.40;1.17;;;3.30;99.90;;;;;;6276720;22;20023;-84
2023/03/05 05:25:30;;;;;;;3.53;0.88;;;3.20;99.90;;;;;;6275999;22;20015;-84
2023/03/05 05:27:55;;;;;;;5.68;1.60;;;3.20;99.90;;;;;;6303082;22;20022;-84
2023/03/05 05:30:21;;;;;;;2.90;0.73;;;3.20;99.90;;;;;;6304882;22;20078;-83
2023/03/05 05:32:46;;;;;;;5.95;1.13;;;3.20;99.90;;;;;;6278526;22;20086;-84
2023/03/05 05:35:12;;;;;;;5.40;1.10;;;3.20;99.90;;;;;;6304861;22;20368;-84
2023/03/05 05:37:38;;;;;;;4.00;0.85;;;3.30;99.90;;;;;;6276548;22;20316;-85
2023/03/05 05:40:04;;;;;;;2.42;0.80;;;3.30;99.90;;;;;;6276961;22;20395;-84
2023/03/05 05:42:30;;;;;;;3.95;0.70;;;3.30;99.90;;;;;;6305751;22;20010;-85
2023/03/05 05:44:55;;;;;;;2.00;1.00;;;3.30;99.90;;;;;;6278621;22;20066;-85
2023/03/05 05:47:21;;;;;;;6.13;1.23;;;3.20;99.90;;;;;;6304925;22;20059;-85
2023/03/05 05:49:46;;;;;;;3.30;0.70;;;3.20;99.90;;;;;;6277700;22;20015;-84
2023/03/05 05:52:13;;;;;;;6.13;1.10;;;3.20;99.90;;;;;;6277875;22;20007;-85
2023/03/05 05:54:39;;;;;;;4.63;1.13;;;3.30;99.90;;;;;;6276600;22;20016;-85
2023/03/05 05:57:05;;;;;;;5.65;0.95;;;3.20;99.90;;;;;;6277460;22;20082;-85
2023/03/05 05:59:31;;;;;;;6.57;1.23;;;3.30;99.90;;;;;;6249961;22;20023;-84
2023/03/05 06:01:57;;;;;;;3.35;1.00;;;3.20;99.90;;;;;;6277866;22;20416;-84
2023/03/05 06:04:22;;;;;;;3.97;0.98;;;3.20;99.90;;;;;;6302994;22;20448;-84
2023/03/05 06:06:48;;;;;;;3.03;1.27;;;3.20;99.90;;;;;;6277136;22;20019;-85
2023/03/05 06:09:14;;;;;;;3.17;0.95;;;3.20;99.90;;;;;;6302004;22;20022;-85
2023/03/05 06:11:39;;;;;;;3.33;1.00;;;3.20;99.90;;;;;;6302702;22;20018;-85
2023/03/05 06:14:06;;;;;;;5.72;1.17;;;3.10;99.90;;;;;;6275810;22;20015;-86
2023/03/05 06:16:32;;;;;;;3.83;1.52;;;3.20;99.90;;;;;;6275338;22;20018;-86
2023/03/05 06:18:58;;;;;;;5.00;1.10;;;3.10;99.90;;;;;;6305647;22;20011;-84
2023/03/05 06:21:24;;;;;;;6.85;1.13;;;3.10;99.90;;;;;;6275569;22;20069;-84
2023/03/05 06:23:50;;;;;;;3.67;1.10;;;3.10;99.90;;;;;;6274761;22;20326;-84
2023/03/05 06:26:18;;;;;;;4.05;1.23;;;3.20;99.90;;;;;;6273572;22;20210;-85
2023/03/05 06:28:44;;;;;;;3.10;1.15;;;3.20;99.90;;;;;;6274992;22;20033;-87
2023/03/05 06:31:22;;;;;;;4.13;1.13;;;3.20;99.90;;;;;;6311114;22;20035;-86
2023/03/05 06:33:48;;;;;;;5.93;1.55;;;3.30;99.90;;;;;;6312887;22;20034;-83
2023/03/05 06:36:17;;;;;;;3.08;1.02;;;3.30;99.90;;;;;;6277691;22;20015;-85
2023/03/05 06:38:43;;;;;;;4.63;1.20;;;3.30;99.90;;;;;;6304252;22;20017;-85
2023/03/05 06:41:14;;;;;;;4.20;1.25;;;3.30;99.90;;;;;;6250041;22;20019;-83
2023/03/05 06:43:42;;;;;;;3.95;1.17;;;3.30;99.90;;;;;;6303659;22;20332;-84
2023/03/05 06:46:12;;;;;;;7.70;1.73;;;3.30;99.90;;;;;;6276609;22;20019;-84
2023/03/05 06:48:38;;;;;;;5.15;1.23;;;3.30;99.90;;;;;;6275685;22;20018;-85
2023/03/05 06:51:04;;;;;;;4.85;1.30;;;3.20;99.90;;;;;;6275965;22;20003;-85
2023/03/05 06:53:29;;;;;;;5.88;1.50;;;3.20;99.90;;;;;;6302647;22;20437;-85
2023/03/05 06:55:55;;;;;;;4.00;1.10;;;3.20;99.90;;;;;;6303447;22;20125;-86
2023/03/05 06:58:21;;;;;;;4.68;1.30;;;3.20;99.90;;;;;;6300693;22;20011;-83
2023/03/05 07:00:47;;;;;;;3.60;1.00;;;3.20;99.90;;;;;;6303889;22;20463;-84
2023/03/05 07:03:13;;;;;;;5.88;1.35;;;3.20;99.90;;;;;;6304903;22;20015;-86
2023/03/05 07:05:39;;;;;;;6.15;1.60;;;3.30;99.90;;;;;;6304541;22;20019;-86
2023/03/05 07:08:05;;;;;;;6.25;1.30;;;3.20;99.90;;;;;;6304048;22;20016;-86
2023/03/05 07:10:31;;;;;;;3.60;1.10;;;3.20;99.90;;;;;;6303831;22;20043;-85
2023/03/05 07:12:57;;;;;;;3.03;1.00;;;3.20;99.90;;;;;;6303250;22;20530;-88
2023/03/05 07:15:23;;;;;;;5.68;1.45;;;3.30;99.90;;;;;;6276105;22;20015;-85
2023/03/05 07:17:49;;;;;;;4.93;1.23;;;3.30;99.90;;;;;;6279068;22;20011;-85
2023/03/05 07:20:14;;;;;;;4.40;1.30;;;3.30;99.90;;;;;;6276974;22;20007;-85
2023/03/05 07:22:40;;;;;;;4.50;1.40;;;3.40;99.90;;;;;;6276922;22;20432;-86
2023/03/05 07:25:06;;;;;;;3.17;0.95;;;3.30;99.90;;;;;;6277225;22;20007;-88
2023/03/05 07:27:36;;;;;;;7.43;1.20;;;3.40;99.90;;;;;;6303941;22;20018;-87
2023/03/05 07:30:03;;;;;;;3.60;1.00;;;3.40;99.90;;;;;;6276310;22;20007;-85
2023/03/05 07:32:28;;;;;;;4.35;1.02;;;3.40;99.90;;;;;;6276959;22;20016;-87
2023/03/05 07:34:54;;;;;;;5.45;1.42;;;3.40;99.90;;;;;;6277610;22;20011;-85
2023/03/05 07:37:20;;;;;;;6.88;2.05;;;3.40;99.90;;;;;;6276088;22;20014;-87
2023/03/05 07:39:46;;;;;;;6.07;1.33;;;3.50;99.90;;;;;;6275191;22;20340;-84
2023/03/05 07:42:11;;;;;;;5.95;1.13;;;3.50;99.90;;;;;;6249433;22;20015;-84
2023/03/05 07:44:37;;;;;;;3.67;1.00;;;3.50;99.90;;;;;;6304284;22;20054;-84
2023/03/05 07:47:04;;;;;;;6.10;1.35;;;3.60;99.90;;;;;;6304175;22;20049;-85
2023/03/05 07:49:30;;;;;;;6.90;1.42;;;3.60;99.90;;;;;;6273306;22;20017;-85
2023/03/05 07:51:55;;;;;;;7.95;1.63;;;3.60;99.90;;;;;;6303229;22;20076;-86
2023/03/05 07:54:21;;;;;;;4.28;1.02;;;3.60;99.90;;;;;;6303815;22;20385;-87
2023/03/05 07:56:47;;;;;;;8.63;1.52;;;3.70;99.90;;;;;;6305722;22;20017;-87
2023/03/05 07:59:13;;;;;;;6.57;1.70;;;3.70;99.90;;;;;;6274359;22;20022;-86
2023/03/05 08:01:39;;;;;;;7.18;1.42;;;3.70;99.90;;;;;;6275432;22;20472;-85
2023/03/05 08:04:06;;;;;;;4.88;1.55;;;3.70;99.90;;;;;;6303770;22;20050;-85
2023/03/05 08:06:32;;;;;;;9.68;1.63;;;3.70;99.90;;;;;;6304124;22;20095;-86
2023/03/05 08:08:58;;;;;;;8.00;2.50;;;3.80;99.90;;;;;;6304359;22;20050;-86
2023/03/05 08:11:24;;;;;;;7.25;1.55;;;3.80;99.90;;;;;;6274982;22;20105;-84
2023/03/05 08:13:50;;;;;;;5.07;1.17;;;3.90;99.90;;;;;;6277074;22;20023;-85
2023/03/05 08:16:20;;;;;;;4.50;1.20;;;3.90;99.90;;;;;;6304365;22;20432;-83
2023/03/05 08:18:46;;;;;;;8.48;1.52;;;4.00;99.90;;;;;;6303913;22;20364;-83
2023/03/05 08:21:25;;;;;;;7.72;1.48;;;4.10;99.90;;;;;;6275679;22;20383;-83
2023/03/05 08:23:51;;;;;;;6.95;1.80;;;4.10;99.90;;;;;;6304169;22;20061;-83
2023/03/05 08:26:20;;;;;;;13.57;1.75;;;4.10;99.90;;;;;;6275771;22;20011;-83
2023/03/05 08:28:46;;;;;;;5.78;1.60;;;4.10;99.90;;;;;;6275880;22;20344;-83
2023/03/05 08:31:14;;;;;;;5.70;1.42;;;4.20;99.90;;;;;;6273743;22;20444;-83
2023/03/05 08:33:40;;;;;;;5.22;1.30;;;4.20;99.90;;;;;;6275302;22;20022;-83
2023/03/05 08:36:07;;;;;;;5.88;1.63;;;4.30;99.90;;;;;;6274647;22;20015;-83
2023/03/05 08:38:33;;;;;;;6.78;2.03;;;4.40;99.90;;;;;;6274990;22;20045;-83
2023/03/05 08:40:58;;;;;;;6.13;1.50;;;4.40;99.90;;;;;;6275832;22;20040;-83
2023/03/05 08:43:24;;;;;;;8.13;2.88;;;4.50;99.90;;;;;;6302561;22;20371;-83
2023/03/05 08:45:50;;;;;;;3.60;1.45;;;4.60;99.90;;;;;;6276390;22;20011;-83
2023/03/05 08:48:16;;;;;;;7.53;1.98;;;4.70;99.90;;;;;;6302783;22;20015;-82
2023/03/05 08:50:41;;;;;;;11.00;2.40;;;4.70;99.90;;;;;;6300678;22;20011;-84
2023/03/05 08:53:07;;;;;;;7.40;1.60;;;4.70;99.90;;;;;;6276103;22;20058;-83
2023/03/05 08:55:33;;;;;;;8.35;1.30;;;4.80;99.90;;;;;;6303300;22;20078;-83
2023/03/05 08:57:59;;;;;;;6.95;1.95;;;4.80;99.90;;;;;;6303863;22;20015;-83
2023/03/05 09:00:25;;;;;;;9.60;1.42;;;5.00;99.90;;;;;;6304912;22;20035;-83
2023/03/05 09:02:50;;;;;;;8.05;1.42;;;5.00;99.90;;;;;;6304979;22;20007;-83
2023/03/05 09:05:17;;;;;;;10.00;1.60;;;5.10;99.90;;;;;;6305652;22;20014;-83
2023/03/05 09:07:44;;;;;;;7.78;1.95;;;5.30;99.90;;;;;;6306173;22;20090;-83
2023/03/05 09:10:12;;;;;;;5.88;1.42;;;5.30;99.90;;;;;;6278366;22;20072;-83
2023/03/05 09:12:38;;;;;;;3.53;0.80;;;5.30;99.90;;;;;;6305237;22;20012;-83
2023/03/05 09:15:08;;;;;;;3.90;1.30;;;5.40;99.90;;;;;;6306424;22;20098;-83
2023/03/05 09:17:40;;;;;;;5.32;1.23;;;5.40;99.90;;;;;;6304772;22;20101;-84
2023/03/05 09:20:07;;;;;;;9.80;2.30;;;5.50;99.90;;;;;;6254224;22;20090;-84
2023/03/05 09:22:32;;;;;;;9.60;2.28;;;5.50;99.90;;;;;;6305214;22;20056;-83
2023/03/05 09:24:58;;;;;;;7.45;1.40;;;5.60;99.90;;;;;;6305666;22;20085;-82
2023/03/05 09:27:23;;;;;;;8.88;2.70;;;5.60;99.90;;;;;;6277404;22;20098;-83
2023/03/05 09:29:49;;;;;;;8.95;2.50;;;5.70;99.90;;;;;;6306180;22;20003;-83
2023/03/05 09:32:15;;;;;;;5.13;2.10;;;5.70;99.90;;;;;;6276954;22;20018;-83
2023/03/05 09:34:40;;;;;;;9.10;2.65;;;5.80;99.90;;;;;;6305560;22;20011;-83
2023/03/05 09:37:07;;;;;;;7.60;1.77;;;5.80;99.90;;;;;;6252798;22;20015;-83
2023/03/05 09:39:33;;;;;;;8.70;1.77;;;5.90;99.90;;;;;;6277665;22;20015;-83
2023/03/05 09:42:40;;;;;;;6.93;1.95;;;6.00;99.90;;;;;;6252669;22;20345;-83
2023/03/05 09:45:12;;;;;;;10.50;1.70;;;6.00;99.90;;;;;;6151714;23;20096;-84
2023/03/05 09:48:03;;;;;;;9.35;1.80;;;6.10;99.90;;;;;;6130265;23;20026;-83
2023/03/05 09:50:43;;;;;;;5.15;1.02;;;6.10;99.90;;;;;;6131848;23;20025;-82
2023/03/05 09:53:24;;;;;;;3.78;0.98;;;6.20;99.90;;;;;;6128616;23;20013;-84
2023/03/05 09:55:59;;;;;;;9.23;1.60;;;6.30;99.90;;;;;;6126675;23;20017;-83
2023/03/05 09:58:36;;;;;;;6.95;1.50;;;6.40;99.90;;;;;;6125421;23;20019;-83
2023/03/05 10:01:12;;;;;;;5.82;1.05;;;6.60;99.90;;;;;;6125771;23;20017;-82
2023/03/05 10:03:58;;;;;;;6.85;0.98;;;6.70;99.90;;;;;;6150692;23;20390;-81
2023/03/05 10:06:31;;;;;;;7.38;2.10;;;6.70;99.90;;;;;;6125627;23;20375;-82
2023/03/05 10:09:10;;;;;;;7.93;2.33;;;6.90;99.90;;;;;;6150892;23;20080;-82
2023/03/05 10:11:41;;;;;;;8.55;2.00;;;6.90;99.90;;;;;;6100793;23;20029;-83
2023/03/05 10:14:39;;;;;;;;;;;6.90;99.90;;;;;;6151212;23;20431;-82
2023/03/05 10:17:24;;;;;;;5.95;1.45;;;6.80;99.90;;;;;;6062103;23;19912;-82
2023/03/05 10:20:19;;;;;;;9.93;2.00;;;6.90;99.90;;;;;;6150980;23;20018;-84
2023/03/05 10:22:57;;;;;;;4.50;0.95;;;7.10;99.90;;;;;;6287732;22;20011;-82
2023/03/05 10:25:49;;;;;;;7.43;1.65;;;7.10;99.90;;;;;;6277467;22;20019;-82
2023/03/05 10:28:18;;;;;;;7.93;2.20;;;7.10;99.90;;;;;;6306328;22;20324;-82
2023/03/05 10:30:54;;;;;;;7.50;1.90;;;7.10;99.90;;;;;;6278756;22;20531;-83
2023/03/05 10:33:34;;;;;;;6.55;1.35;;;7.10;99.90;;;;;;6305537;22;20056;-82
2023/03/05 10:36:11;;;;;;;7.57;1.70;;;7.20;99.90;;;;;;6306662;22;20007;-82
2023/03/05 10:39:06;;;;;;;8.57;1.65;;;7.20;99.90;;;;;;6279614;22;20015;-82
2023/03/05 10:42:04;;;;;;;5.38;1.08;;;7.20;99.90;;;;;;6303224;22;20018;-82
2023/03/05 10:44:49;;;;;;;7.53;1.58;;;7.20;99.90;;;;;;6303845;22;20364;-82
2023/03/05 10:47:46;;;;;;;8.77;1.83;;;7.20;99.90;;;;;;6304237;22;20491;-81
2023/03/05 10:50:27;;;;;;;7.80;1.58;;;7.20;99.90;;;;;;6276766;22;20106;-84
2023/03/05 10:53:24;;;;;;;8.05;2.10;;;7.20;99.90;;;;;;6277265;22;20011;-82
2023/03/05 10:55:54;;;;;;;10.18;2.53;;;7.00;99.90;;;;;;6304551;22;20045;-82
2023/03/05 10:58:22;;;;;;;4.97;1.40;;;7.00;99.90;;;;;;6302811;22;20135;-82
2023/03/05 11:01:00;;;;;;;6.28;1.30;;;7.10;99.90;;;;;;6302674;22;20454;-82
2023/03/05 11:03:49;;;;;;;6.63;1.58;;;7.20;99.90;;;;;;6275562;22;20318;-83
2023/03/05 11:06:38;;;;;;;13.43;8.45;;;7.10;99.90;;;;;;6303342;22;20012;-84
2023/03/05 11:09:16;;;;;;;6.55;1.60;;;7.00;99.90;;;;;;6302666;22;20016;-82
2023/03/05 11:11:44;;;;;;;7.07;2.03;;;6.70;99.90;;;;;;6250744;22;20074;-83
2023/03/05 11:14:32;;;;;;;6.80;1.70;;;6.50;99.90;;;;;;6302913;22;20408;-83
2023/03/05 11:16:59;;;;;;;6.60;1.90;;;6.30;99.90;;;;;;6276638;22;20011;-83
2023/03/05 11:19:32;;;;;;;6.07;1.73;;;6.20;99.90;;;;;;6275565;22;20034;-82
2023/03/05 11:22:13;;;;;;;5.00;1.35;;;6.10;99.90;;;;;;6278297;22;20038;-84
2023/03/05 11:24:40;;;;;;;6.05;1.05;;;6.10;99.90;;;;;;6304225;22;20019;-83
2023/03/05 11:27:36;;;;;;;2.67;0.90;;;6.00;99.90;;;;;;6275290;22;20004;-82
2023/03/05 11:30:03;;;;;;;8.65;1.70;;;6.00;99.90;;;;;;6286703;22;20073;-82
2023/03/05 11:32:30;;;;;;;5.00;1.33;;;6.10;99.90;;;;;;6302435;22;20007;-82
2023/03/05 11:34:56;;;;;;;5.70;0.98;;;6.10;99.90;;;;;;6275201;22;20011;-82
2023/03/05 11:37:30;;;;;;;4.57;1.00;;;6.00;99.90;;;;;;6302917;22;20011;-82
2023/03/05 11:40:19;;;;;;;7.03;1.40;;;6.20;99.90;;;;;;6275316;22;20394;-82
2023/03/05 11:42:54;;;;;;;4.43;1.00;;;6.30;99.90;;;;;;6307176;22;20337;-83
2023/03/05 11:45:21;;;;;;;3.28;0.90;;;6.20;99.90;;;;;;6304991;22;20026;-82
2023/03/05 11:47:48;;;;;;;4.68;1.38;;;6.10;99.90;;;;;;6305002;22;20360;-86
2023/03/05 11:50:23;;;;;;;4.05;1.15;;;6.20;99.90;;;;;;6303679;22;20026;-83
2023/03/05 11:53:12;;;;;;;4.55;1.50;;;6.20;99.90;;;;;;6302664;22;20008;-83
2023/03/05 11:55:43;;;;;;;2.35;0.70;;;6.20;99.90;;;;;;6275210;22;20015;-83
2023/03/05 11:58:17;;;;;;;3.45;0.90;;;6.30;99.90;;;;;;6303227;22;20091;-83
2023/03/05 12:00:45;;;;;;;6.75;1.60;;;6.40;99.90;;;;;;6250869;22;20030;-83
2023/03/05 12:03:16;;;;;;;6.80;1.40;;;6.40;99.90;;;;;;6275845;22;20436;-83
2023/03/05 12:05:44;;;;;;;;;;;6.40;99.90;;;;;;6276540;22;20011;-84
2023/03/05 12:08:20;;;;;;;7.55;1.65;;;6.50;99.90;;;;;;6275071;22;19968;-83
2023/03/05 12:10:45;;;;;;;3.53;1.00;;;6.60;99.90;;;;;;6302674;22;20022;-83
2023/03/05 12:13:16;;;;;;;4.68;1.20;;;6.60;99.90;;;;;;6301044;22;20015;-84
2023/03/05 12:16:07;;;;;;;6.40;1.70;;;6.80;99.90;;;;;;6275986;22;20023;-82
2023/03/05 12:18:42;;;;;;;6.18;1.40;;;6.90;99.90;;;;;;6302651;22;20078;-82
2023/03/05 12:21:26;;;;;;;7.10;1.58;;;6.90;99.90;;;;;;6275029;22;20332;-83
2023/03/05 12:24:00;;;;;;;7.18;1.60;;;7.10;99.90;;;;;;6274490;22;20015;-82
2023/03/05 12:27:03;;;;;;;6.68;1.58;;;7.20;99.90;;;;;;6272221;22;20047;-85
2023/03/05 12:29:28;;;;;;;7.40;1.35;;;7.40;99.90;;;;;;6276247;22;20015;-86
2023/03/05 12:31:54;;;;;;;4.97;1.13;;;7.50;99.90;;;;;;6277280;22;20082;-85
2023/03/05 12:34:46;;;;;;;6.60;1.50;;;7.50;99.90;;;;;;6303426;22;20003;-83
2023/03/05 12:37:33;;;;;;;7.47;1.20;;;7.60;99.90;;;;;;6274627;22;20076;-85
2023/03/05 12:40:07;;;;;;;5.65;1.40;;;7.60;99.90;;;;;;6256572;22;20007;-85
2023/03/05 12:42:32;;;;;;;6.00;1.48;;;7.60;99.90;;;;;;6302730;22;20015;-83
2023/03/05 12:45:18;;;;;;;7.07;1.23;;;7.70;99.90;;;;;;6304437;22;20007;-84
2023/03/05 12:47:55;;;;;;;4.80;1.30;;;7.70;99.90;;;;;;6304746;22;20015;-84
2023/03/05 12:50:27;;;;;;;5.20;1.20;;;7.80;99.90;;;;;;6251469;22;20015;-84
2023/03/05 12:52:56;;;;;;;6.60;1.40;;;7.90;99.90;;;;;;6277566;22;20069;-85
2023/03/05 12:55:34;;;;;;;6.50;1.63;;;7.90;99.90;;;;;;6302198;22;20011;-84
2023/03/05 12:58:10;;;;;;;5.93;1.83;;;7.70;99.90;;;;;;6304674;22;20015;-83
2023/03/05 13:00:45;;;;;;;4.13;1.13;;;7.50;99.90;;;;;;6277393;22;20062;-84
2023/03/05 13:03:26;;;;;;;7.18;1.50;;;7.10;99.90;;;;;;6305328;22;20336;-84
2023/03/05 13:05:54;;;;;;;4.90;0.95;;;6.80;99.90;;;;;;6276438;22;20022;-83
2023/03/05 13:08:21;;;;;;;5.95;1.70;;;6.50;99.90;;;;;;6308035;22;20035;-84
2023/03/05 13:10:57;;;;;;;6.85;1.80;;;6.30;99.90;;;;;;6283702;22;20026;-83